sensor_id;sensor_type;location;lat;lon;timestamp;pressure;altitude;pressure_sealevel;temperature;humidity
3434;BME280;1730;41.932;25.548;2024-02-21T00:00:10;100931.16;;;5.41;100.00
3434;BME280;1730;41.932;25.548;2024-02-21T00:02:37;101355.56;;;7.82;100.00
3434;BME280;1730;41.932;25.548;2024-02-21T00:05:02;101280.72;;;7.29;100.00
3434;BME280;1730;41.932;25.548;2024-02-21T00:07:28;101323.69;;;7.44;100.00
3434;BME280;1730;41.932;25.548;2024-02-21T00:09:53;100912.78;;;5.01;100.00
3434;BME280;1730;41.932;25.548;2024-02-21T00:12:19;101374.19;;;7.53;100.00
3434;BME280;1730;41.932;25.548;2024-02-21T00:14:45;101225.50;;;6.93;100.00
3434;BME280;1730;41.932;25.548;2024-02-21T00:17:10;101232.72;;;6.75;100.00
3434;BME280;1730;41.932;25.548;2024-02-21T00:19:36;101337.69;;;7.34;100.00
3434;BME280;1730;41.932;25.548;2024-02-21T00:22:01;101308.34;;;6.98;100.00
3434;BME280;1730;41.932;25.548;2024-02-21T00:24:27;101381.84;;;7.44;100.00
3434;BME280;1730;41.932;25.548;2024-02-21T00:26:53;101121.50;;;5.84;100.00
3434;BME280;1730;41.932;25.548;2024-02-21T00:29:19;101422.22;;;7.25;100.00
3434;BME280;1730;41.932;25.548;2024-02-21T00:31:45;101414.00;;;7.45;100.00
3434;BME280;1730;41.932;25.548;2024-02-21T00:34:11;101424.09;;;7.40;100.00
3434;BME280;1730;41.932;25.548;2024-02-21T00:36:38;101291.72;;;6.75;100.00
3434;BME280;1730;41.932;25.548;2024-02-21T00:39:03;100698.84;;;3.35;100.00
3434;BME280;1730;41.932;25.548;2024-02-21T00:41:29;101118.63;;;5.88;100.00
3434;BME280;1730;41.932;25.548;2024-02-21T00:43:55;101383.41;;;7.32;100.00
3434;BME280;1730;41.932;25.548;2024-02-21T00:46:20;101381.66;;;7.31;100.00
3434;BME280;1730;41.932;25.548;2024-02-21T00:48:46;101384.78;;;7.23;100.00
3434;BME280;1730;41.932;25.548;2024-02-21T00:51:11;101264.06;;;6.41;100.00
3434;BME280;1730;41.932;25.548;2024-02-21T00:53:37;101234.53;;;6.25;100.00
3434;BME280;1730;41.932;25.548;2024-02-21T00:56:05;101419.94;;;7.35;100.00
3434;BME280;1730;41.932;25.548;2024-02-21T00:58:31;101455.81;;;7.49;100.00
3434;BME280;1730;41.932;25.548;2024-02-21T01:00:56;101298.47;;;6.83;100.00
3434;BME280;1730;41.932;25.548;2024-02-21T01:03:22;101424.94;;;7.58;100.00
3434;BME280;1730;41.932;25.548;2024-02-21T01:05:47;101412.50;;;7.40;100.00
3434;BME280;1730;41.932;25.548;2024-02-21T01:08:13;101279.44;;;6.87;100.00
3434;BME280;1730;41.932;25.548;2024-02-21T01:10:38;101418.38;;;7.79;100.00
3434;BME280;1730;41.932;25.548;2024-02-21T01:13:04;101384.22;;;7.50;100.00
3434;BME280;1730;41.932;25.548;2024-02-21T01:15:29;101376.56;;;7.42;100.00
3434;BME280;1730;41.932;25.548;2024-02-21T01:17:55;101395.91;;;7.64;100.00
3434;BME280;1730;41.932;25.548;2024-02-21T01:20:21;101387.97;;;7.63;100.00
3434;BME280;1730;41.932;25.548;2024-02-21T01:22:46;101099.81;;;5.90;100.00
3434;BME280;1730;41.932;25.548;2024-02-21T01:25:12;101380.25;;;7.57;100.00
3434;BME280;1730;41.932;25.548;2024-02-21T01:27:38;101379.44;;;7.55;100.00
3434;BME280;1730;41.932;25.548;2024-02-21T01:30:04;101247.47;;;6.84;100.00
3434;BME280;1730;41.932;25.548;2024-02-21T01:32:31;101398.63;;;7.80;100.00
3434;BME280;1730;41.932;25.548;2024-02-21T01:34:56;101343.84;;;7.51;100.00
3434;BME280;1730;41.932;25.548;2024-02-21T01:37:22;101396.97;;;7.78;100.00
3434;BME280;1730;41.932;25.548;2024-02-21T01:39:47;101193.37;;;6.76;100.00
3434;BME280;1730;41.932;25.548;2024-02-21T01:42:14;101093.16;;;6.14;100.00
3434;BME280;1730;41.932;25.548;2024-02-21T01:44:40;101004.81;;;5.64;100.00
3434;BME280;1730;41.932;25.548;2024-02-21T01:47:06;101364.34;;;7.85;100.00
3434;BME280;1730;41.932;25.548;2024-02-21T01:49:33;101342.13;;;7.50;100.00
3434;BME280;1730;41.932;25.548;2024-02-21T01:51:59;101367.53;;;7.76;100.00
3434;BME280;1730;41.932;25.548;2024-02-21T01:54:25;100985.16;;;5.65;100.00
3434;BME280;1730;41.932;25.548;2024-02-21T01:56:54;101380.62;;;7.98;100.00
3434;BME280;1730;41.932;25.548;2024-02-21T01:59:21;101370.62;;;8.00;100.00
3434;BME280;1730;41.932;25.548;2024-02-21T02:01:47;101117.31;;;6.46;100.00
3434;BME280;1730;41.932;25.548;2024-02-21T02:04:13;101139.81;;;6.59;100.00
3434;BME280;1730;41.932;25.548;2024-02-21T02:06:40;101397.06;;;7.92;100.00
3434;BME280;1730;41.932;25.548;2024-02-21T02:09:06;101374.72;;;8.07;100.00
3434;BME280;1730;41.932;25.548;2024-02-21T02:11:32;101394.72;;;8.01;100.00
3434;BME280;1730;41.932;25.548;2024-02-21T02:13:58;101348.38;;;7.98;100.00
3434;BME280;1730;41.932;25.548;2024-02-21T02:16:23;101256.84;;;7.55;100.00
3434;BME280;1730;41.932;25.548;2024-02-21T02:18:48;100945.03;;;5.65;100.00
3434;BME280;1730;41.932;25.548;2024-02-21T02:21:24;101151.69;;;6.70;100.00
3434;BME280;1730;41.932;25.548;2024-02-21T02:23:52;101323.44;;;7.49;100.00
3434;BME280;1730;41.932;25.548;2024-02-21T02:26:18;101336.50;;;7.55;100.00
3434;BME280;1730;41.932;25.548;2024-02-21T02:28:43;101355.22;;;7.56;100.00
3434;BME280;1730;41.932;25.548;2024-02-21T02:31:09;101377.22;;;7.63;100.00
3434;BME280;1730;41.932;25.548;2024-02-21T02:33:34;101293.00;;;7.17;100.00
3434;BME280;1730;41.932;25.548;2024-02-21T02:35:59;101407.38;;;7.84;100.00
3434;BME280;1730;41.932;25.548;2024-02-21T02:38:25;101379.69;;;7.50;100.00
3434;BME280;1730;41.932;25.548;2024-02-21T02:40:50;101320.19;;;6.94;100.00
3434;BME280;1730;41.932;25.548;2024-02-21T02:43:16;101381.59;;;7.33;100.00
3434;BME280;1730;41.932;25.548;2024-02-21T02:45:42;101392.22;;;7.34;100.00
3434;BME280;1730;41.932;25.548;2024-02-21T02:48:08;101398.06;;;7.25;100.00
3434;BME280;1730;41.932;25.548;2024-02-21T02:50:33;101419.47;;;7.27;100.00
3434;BME280;1730;41.932;25.548;2024-02-21T02:52:59;101427.69;;;7.23;100.00
3434;BME280;1730;41.932;25.548;2024-02-21T02:55:25;101032.44;;;4.96;100.00
3434;BME280;1730;41.932;25.548;2024-02-21T02:57:51;101310.81;;;6.52;100.00
3434;BME280;1730;41.932;25.548;2024-02-21T03:00:17;101294.25;;;6.61;100.00
3434;BME280;1730;41.932;25.548;2024-02-21T03:02:44;101476.50;;;7.80;100.00
3434;BME280;1730;41.932;25.548;2024-02-21T03:05:19;101440.34;;;7.70;100.00
3434;BME280;1730;41.932;25.548;2024-02-21T03:07:45;101237.41;;;6.55;100.00
3434;BME280;1730;41.932;25.548;2024-02-21T03:10:11;101408.53;;;7.47;100.00
3434;BME280;1730;41.932;25.548;2024-02-21T03:12:37;101388.03;;;7.46;100.00
3434;BME280;1730;41.932;25.548;2024-02-21T03:15:04;101414.62;;;7.33;100.00
3434;BME280;1730;41.932;25.548;2024-02-21T03:17:30;101486.38;;;7.30;100.00
3434;BME280;1730;41.932;25.548;2024-02-21T03:19:55;101027.50;;;5.06;100.00
3434;BME280;1730;41.932;25.548;2024-02-21T03:22:21;101348.84;;;6.76;100.00
3434;BME280;1730;41.932;25.548;2024-02-21T03:24:47;101438.75;;;7.50;100.00
3434;BME280;1730;41.932;25.548;2024-02-21T03:27:13;101306.12;;;6.73;100.00
3434;BME280;1730;41.932;25.548;2024-02-21T03:29:38;101430.44;;;7.22;100.00
3434;BME280;1730;41.932;25.548;2024-02-21T03:32:04;101394.69;;;7.21;100.00
3434;BME280;1730;41.932;25.548;2024-02-21T03:34:29;101444.09;;;7.50;100.00
3434;BME280;1730;41.932;25.548;2024-02-21T03:36:54;101447.84;;;7.48;100.00
3434;BME280;1730;41.932;25.548;2024-02-21T03:39:20;101428.47;;;7.25;100.00
3434;BME280;1730;41.932;25.548;2024-02-21T03:41:46;101128.69;;;5.49;100.00
3434;BME280;1730;41.932;25.548;2024-02-21T03:44:12;101463.00;;;7.49;100.00
3434;BME280;1730;41.932;25.548;2024-02-21T03:46:37;101464.75;;;7.50;100.00
3434;BME280;1730;41.932;25.548;2024-02-21T03:49:03;101480.09;;;7.63;100.00
3434;BME280;1730;41.932;25.548;2024-02-21T03:51:28;101355.69;;;6.99;100.00
3434;BME280;1730;41.932;25.548;2024-02-21T03:53:54;101330.88;;;6.78;100.00
3434;BME280;1730;41.932;25.548;2024-02-21T03:56:19;101397.44;;;7.20;100.00
3434;BME280;1730;41.932;25.548;2024-02-21T03:58:45;101257.88;;;6.40;100.00
3434;BME280;1730;41.932;25.548;2024-02-21T04:01:10;101425.22;;;7.36;100.00
3434;BME280;1730;41.932;25.548;2024-02-21T04:03:36;101338.91;;;6.78;100.00
3434;BME280;1730;41.932;25.548;2024-02-21T04:06:01;101475.38;;;7.51;100.00
3434;BME280;1730;41.932;25.548;2024-02-21T04:08:27;101458.34;;;7.52;100.00
3434;BME280;1730;41.932;25.548;2024-02-21T04:10:52;101499.50;;;7.36;100.00
3434;BME280;1730;41.932;25.548;2024-02-21T04:13:18;101284.19;;;6.49;100.00
3434;BME280;1730;41.932;25.548;2024-02-21T04:15:43;101450.78;;;7.26;100.00
3434;BME280;1730;41.932;25.548;2024-02-21T04:18:10;101077.78;;;5.16;100.00
3434;BME280;1730;41.932;25.548;2024-02-21T04:20:35;101346.91;;;6.79;100.00
3434;BME280;1730;41.932;25.548;2024-02-21T04:23:01;101077.84;;;5.15;100.00
3434;BME280;1730;41.932;25.548;2024-02-21T04:25:26;101489.28;;;7.42;100.00
3434;BME280;1730;41.932;25.548;2024-02-21T04:27:52;101481.78;;;7.49;100.00
3434;BME280;1730;41.932;25.548;2024-02-21T04:30:17;101440.00;;;7.28;100.00
3434;BME280;1730;41.932;25.548;2024-02-21T04:32:43;101455.91;;;7.31;100.00
3434;BME280;1730;41.932;25.548;2024-02-21T04:35:09;101484.78;;;7.43;100.00
3434;BME280;1730;41.932;25.548;2024-02-21T04:37:34;101474.69;;;7.31;100.00
3434;BME280;1730;41.932;25.548;2024-02-21T04:40:00;101480.00;;;7.32;100.00
3434;BME280;1730;41.932;25.548;2024-02-21T04:42:26;101518.94;;;7.56;100.00
3434;BME280;1730;41.932;25.548;2024-02-21T04:44:51;101530.16;;;7.64;100.00
3434;BME280;1730;41.932;25.548;2024-02-21T04:47:17;101347.62;;;6.66;100.00
3434;BME280;1730;41.932;25.548;2024-02-21T04:49:42;101516.44;;;7.86;100.00
3434;BME280;1730;41.932;25.548;2024-02-21T04:52:08;101407.16;;;7.22;100.00
3434;BME280;1730;41.932;25.548;2024-02-21T04:54:33;101477.87;;;7.72;100.00
3434;BME280;1730;41.932;25.548;2024-02-21T04:57:00;101151.50;;;5.92;100.00
3434;BME280;1730;41.932;25.548;2024-02-21T04:59:26;101455.66;;;7.85;100.00
3434;BME280;1730;41.932;25.548;2024-02-21T05:01:52;101086.12;;;5.79;100.00
3434;BME280;1730;41.932;25.548;2024-02-21T05:04:17;101153.16;;;6.10;100.00
3434;BME280;1730;41.932;25.548;2024-02-21T05:06:43;101364.75;;;7.29;100.00
3434;BME280;1730;41.932;25.548;2024-02-21T05:09:09;101261.97;;;6.63;100.00
3434;BME280;1730;41.932;25.548;2024-02-21T05:11:36;101407.13;;;7.40;100.00
3434;BME280;1730;41.932;25.548;2024-02-21T05:14:04;101243.69;;;6.21;100.00
3434;BME280;1730;41.932;25.548;2024-02-21T05:16:31;101261.56;;;6.20;100.00
3434;BME280;1730;41.932;25.548;2024-02-21T05:18:56;101423.34;;;7.04;100.00
3434;BME280;1730;41.932;25.548;2024-02-21T05:21:23;101460.81;;;7.22;100.00
3434;BME280;1730;41.932;25.548;2024-02-21T05:23:53;101369.69;;;6.71;100.00
3434;BME280;1730;41.932;25.548;2024-02-21T05:26:22;101097.63;;;4.93;100.00
3434;BME280;1730;41.932;25.548;2024-02-21T05:28:48;101457.75;;;7.13;100.00
3434;BME280;1730;41.932;25.548;2024-02-21T05:31:18;101481.66;;;7.17;100.00
3434;BME280;1730;41.932;25.548;2024-02-21T05:33:44;101470.13;;;7.15;100.00
3434;BME280;1730;41.932;25.548;2024-02-21T05:36:10;101212.84;;;5.78;100.00
3434;BME280;1730;41.932;25.548;2024-02-21T05:38:35;101490.97;;;7.45;100.00
3434;BME280;1730;41.932;25.548;2024-02-21T05:41:01;101306.69;;;6.45;100.00
3434;BME280;1730;41.932;25.548;2024-02-21T05:43:27;101413.47;;;7.21;100.00
3434;BME280;1730;41.932;25.548;2024-02-21T05:45:52;101456.34;;;7.56;100.00
3434;BME280;1730;41.932;25.548;2024-02-21T05:48:18;101286.34;;;6.58;100.00
3434;BME280;1730;41.932;25.548;2024-02-21T05:50:43;101439.56;;;7.68;100.00
3434;BME280;1730;41.932;25.548;2024-02-21T05:53:09;101423.37;;;7.54;100.00
3434;BME280;1730;41.932;25.548;2024-02-21T05:55:35;101444.22;;;7.97;100.00
3434;BME280;1730;41.932;25.548;2024-02-21T05:58:01;101143.09;;;6.48;100.00
3434;BME280;1730;41.932;25.548;2024-02-21T06:00:28;101290.44;;;7.47;100.00
3434;BME280;1730;41.932;25.548;2024-02-21T06:02:54;101333.38;;;8.09;100.00
3434;BME280;1730;41.932;25.548;2024-02-21T06:05:19;100841.06;;;5.42;100.00
3434;BME280;1730;41.932;25.548;2024-02-21T06:07:44;101174.88;;;7.50;100.00
3434;BME280;1730;41.932;25.548;2024-02-21T06:10:10;101078.81;;;7.25;100.00
3434;BME280;1730;41.932;25.548;2024-02-21T06:12:36;100994.59;;;6.98;100.00
3434;BME280;1730;41.932;25.548;2024-02-21T06:15:02;101212.41;;;8.55;100.00
3434;BME280;1730;41.932;25.548;2024-02-21T06:17:28;101150.22;;;8.03;100.00
3434;BME280;1730;41.932;25.548;2024-02-21T06:19:53;101164.97;;;8.10;100.00
3434;BME280;1730;41.932;25.548;2024-02-21T06:22:19;101188.47;;;8.36;100.00
3434;BME280;1730;41.932;25.548;2024-02-21T06:24:44;101175.31;;;8.60;100.00
3434;BME280;1730;41.932;25.548;2024-02-21T06:27:11;101024.81;;;7.89;100.00
3434;BME280;1730;41.932;25.548;2024-02-21T06:29:37;100962.19;;;7.75;100.00
3434;BME280;1730;41.932;25.548;2024-02-21T06:32:02;100974.44;;;7.79;100.00
3434;BME280;1730;41.932;25.548;2024-02-21T06:34:28;101094.56;;;8.62;100.00
3434;BME280;1730;41.932;25.548;2024-02-21T06:36:54;100992.75;;;8.14;100.00
3434;BME280;1730;41.932;25.548;2024-02-21T06:39:19;100459.09;;;5.34;100.00
3434;BME280;1730;41.932;25.548;2024-02-21T06:41:45;101062.47;;;8.99;100.00
3434;BME280;1730;41.932;25.548;2024-02-21T06:44:12;101001.72;;;8.83;100.00
3434;BME280;1730;41.932;25.548;2024-02-21T06:46:37;101046.53;;;9.23;100.00
3434;BME280;1730;41.932;25.548;2024-02-21T06:49:03;100863.00;;;8.53;100.00
3434;BME280;1730;41.932;25.548;2024-02-21T06:51:29;100568.22;;;6.85;100.00
3434;BME280;1730;41.932;25.548;2024-02-21T06:53:55;100957.50;;;9.26;100.00
3434;BME280;1730;41.932;25.548;2024-02-21T06:56:23;100794.00;;;8.27;100.00
3434;BME280;1730;41.932;25.548;2024-02-21T06:58:52;100946.00;;;9.24;100.00
3434;BME280;1730;41.932;25.548;2024-02-21T07:01:18;100824.00;;;8.73;100.00
3434;BME280;1730;41.932;25.548;2024-02-21T07:03:43;100908.31;;;9.49;100.00
3434;BME280;1730;41.932;25.548;2024-02-21T07:06:09;100879.66;;;9.11;100.00
3434;BME280;1730;41.932;25.548;2024-02-21T07:08:34;100896.78;;;9.10;100.00
3434;BME280;1730;41.932;25.548;2024-02-21T07:11:00;100817.22;;;8.55;100.00
3434;BME280;1730;41.932;25.548;2024-02-21T07:13:26;100918.94;;;9.00;100.00
3434;BME280;1730;41.932;25.548;2024-02-21T07:15:51;100928.41;;;9.06;100.00
3434;BME280;1730;41.932;25.548;2024-02-21T07:18:17;100947.41;;;9.42;100.00
3434;BME280;1730;41.932;25.548;2024-02-21T07:20:43;100938.56;;;9.28;100.00
3434;BME280;1730;41.932;25.548;2024-02-21T07:23:08;100956.78;;;9.49;100.00
3434;BME280;1730;41.932;25.548;2024-02-21T07:25:34;100785.94;;;8.79;100.00
3434;BME280;1730;41.932;25.548;2024-02-21T07:27:59;100970.47;;;9.72;100.00
3434;BME280;1730;41.932;25.548;2024-02-21T07:30:25;100774.22;;;8.80;100.00
3434;BME280;1730;41.932;25.548;2024-02-21T07:32:51;100780.16;;;9.47;100.00
3434;BME280;1730;41.932;25.548;2024-02-21T07:35:19;100500.19;;;8.03;100.00
3434;BME280;1730;41.932;25.548;2024-02-21T07:37:45;100831.81;;;10.01;100.00
3434;BME280;1730;41.932;25.548;2024-02-21T07:40:14;100670.00;;;9.20;100.00
3434;BME280;1730;41.932;25.548;2024-02-21T07:42:40;100801.12;;;10.15;100.00
3434;BME280;1730;41.932;25.548;2024-02-21T07:45:07;100787.94;;;10.47;100.00
3434;BME280;1730;41.932;25.548;2024-02-21T07:47:34;100632.53;;;10.34;100.00
3434;BME280;1730;41.932;25.548;2024-02-21T07:49:59;100664.44;;;10.96;100.00
3434;BME280;1730;41.932;25.548;2024-02-21T07:52:24;100607.59;;;11.09;100.00
3434;BME280;1730;41.932;25.548;2024-02-21T07:54:51;100452.72;;;10.46;100.00
3434;BME280;1730;41.932;25.548;2024-02-21T07:57:17;100482.66;;;11.18;100.00
3434;BME280;1730;41.932;25.548;2024-02-21T07:59:42;100366.06;;;10.82;100.00
3434;BME280;1730;41.932;25.548;2024-02-21T08:02:08;100166.84;;;9.84;100.00
3434;BME280;1730;41.932;25.548;2024-02-21T08:04:34;100172.87;;;9.76;100.00
3434;BME280;1730;41.932;25.548;2024-02-21T08:07:00;100401.62;;;10.76;100.00
3434;BME280;1730;41.932;25.548;2024-02-21T08:09:30;100445.06;;;11.05;100.00
3434;BME280;1730;41.932;25.548;2024-02-21T08:11:55;100451.53;;;11.35;100.00
3434;BME280;1730;41.932;25.548;2024-02-21T08:14:21;100422.12;;;11.41;100.00
3434;BME280;1730;41.932;25.548;2024-02-21T08:16:47;100378.59;;;10.72;100.00
3434;BME280;1730;41.932;25.548;2024-02-21T08:19:13;100410.53;;;11.71;100.00
3434;BME280;1730;41.932;25.548;2024-02-21T08:21:39;100381.88;;;11.80;100.00
3434;BME280;1730;41.932;25.548;2024-02-21T08:24:05;100345.41;;;12.14;100.00
3434;BME280;1730;41.932;25.548;2024-02-21T08:26:30;100219.87;;;11.38;100.00
3434;BME280;1730;41.932;25.548;2024-02-21T08:28:59;100087.38;;;10.61;100.00
3434;BME280;1730;41.932;25.548;2024-02-21T08:31:28;100263.69;;;11.82;100.00
3434;BME280;1730;41.932;25.548;2024-02-21T08:34:02;100267.25;;;11.92;100.00
3434;BME280;1730;41.932;25.548;2024-02-21T08:36:33;100114.56;;;11.38;100.00
3434;BME280;1730;41.932;25.548;2024-02-21T08:38:59;100025.88;;;11.05;100.00
3434;BME280;1730;41.932;25.548;2024-02-21T08:41:25;100177.62;;;11.87;100.00
3434;BME280;1730;41.932;25.548;2024-02-21T08:43:52;100234.84;;;11.52;100.00
3434;BME280;1730;41.932;25.548;2024-02-21T08:46:22;99963.75;;;9.66;100.00
3434;BME280;1730;41.932;25.548;2024-02-21T08:48:52;100274.91;;;11.77;100.00
3434;BME280;1730;41.932;25.548;2024-02-21T08:51:19;100268.00;;;12.23;100.00
3434;BME280;1730;41.932;25.548;2024-02-21T08:53:45;100221.25;;;12.69;100.00
3434;BME280;1730;41.932;25.548;2024-02-21T08:56:11;99804.63;;;10.18;100.00
3434;BME280;1730;41.932;25.548;2024-02-21T08:58:38;100176.91;;;12.98;100.00
3434;BME280;1730;41.932;25.548;2024-02-21T09:01:05;100162.09;;;12.93;100.00
3434;BME280;1730;41.932;25.548;2024-02-21T09:03:35;99711.16;;;10.19;100.00
3434;BME280;1730;41.932;25.548;2024-02-21T09:06:00;99801.72;;;11.16;100.00
3434;BME280;1730;41.932;25.548;2024-02-21T09:08:26;99883.28;;;11.76;100.00
3434;BME280;1730;41.932;25.548;2024-02-21T09:10:53;100081.50;;;13.14;100.00
3434;BME280;1730;41.932;25.548;2024-02-21T09:13:18;100055.84;;;13.53;100.00
3434;BME280;1730;41.932;25.548;2024-02-21T09:15:44;100032.78;;;13.32;100.00
3434;BME280;1730;41.932;25.548;2024-02-21T09:18:10;100025.88;;;13.55;100.00
3434;BME280;1730;41.932;25.548;2024-02-21T09:20:41;99691.78;;;11.90;100.00
3434;BME280;1730;41.932;25.548;2024-02-21T09:23:07;99751.53;;;12.76;100.00
3434;BME280;1730;41.932;25.548;2024-02-21T09:25:32;99972.38;;;14.09;100.00
3434;BME280;1730;41.932;25.548;2024-02-21T09:27:59;99965.09;;;14.09;100.00
3434;BME280;1730;41.932;25.548;2024-02-21T09:30:25;99869.78;;;13.36;100.00
3434;BME280;1730;41.932;25.548;2024-02-21T09:32:51;99860.69;;;13.45;100.00
3434;BME280;1730;41.932;25.548;2024-02-21T09:35:16;99842.41;;;13.22;100.00
3434;BME280;1730;41.932;25.548;2024-02-21T09:37:42;99901.69;;;14.44;100.00
3434;BME280;1730;41.932;25.548;2024-02-21T09:40:08;99948.94;;;14.67;100.00
3434;BME280;1730;41.932;25.548;2024-02-21T09:42:41;99939.28;;;14.31;100.00
3434;BME280;1730;41.932;25.548;2024-02-21T09:45:23;99952.88;;;14.73;100.00
3434;BME280;1730;41.932;25.548;2024-02-21T09:50:38;99943.72;;;14.82;100.00
3434;BME280;1730;41.932;25.548;2024-02-21T09:53:06;99938.06;;;15.66;100.00
3434;BME280;1730;41.932;25.548;2024-02-21T09:55:33;99818.81;;;14.66;100.00
3434;BME280;1730;41.932;25.548;2024-02-21T09:58:01;99927.00;;;15.35;100.00
3434;BME280;1730;41.932;25.548;2024-02-21T10:00:28;99811.00;;;14.79;100.00
3434;BME280;1730;41.932;25.548;2024-02-21T10:02:55;99913.22;;;15.69;100.00
3434;BME280;1730;41.932;25.548;2024-02-21T10:05:21;99907.28;;;15.65;100.00
3434;BME280;1730;41.932;25.548;2024-02-21T10:07:48;99904.16;;;16.01;100.00
3434;BME280;1730;41.932;25.548;2024-02-21T10:10:14;99899.63;;;16.24;100.00
3434;BME280;1730;41.932;25.548;2024-02-21T10:12:49;99891.25;;;15.95;100.00
3434;BME280;1730;41.932;25.548;2024-02-21T10:15:20;99898.62;;;15.38;100.00
3434;BME280;1730;41.932;25.548;2024-02-21T10:17:45;99897.44;;;15.24;100.00
3434;BME280;1730;41.932;25.548;2024-02-21T10:20:13;99901.50;;;15.20;100.00
3434;BME280;1730;41.932;25.548;2024-02-21T10:22:40;99900.19;;;14.50;100.00
3434;BME280;1730;41.932;25.548;2024-02-21T10:25:10;99875.47;;;14.19;100.00
3434;BME280;1730;41.932;25.548;2024-02-21T10:27:39;99891.88;;;14.09;100.00
3434;BME280;1730;41.932;25.548;2024-02-21T10:30:12;99906.28;;;14.10;100.00
3434;BME280;1730;41.932;25.548;2024-02-21T10:32:52;99890.84;;;14.44;100.00
3434;BME280;1730;41.932;25.548;2024-02-21T10:35:32;99885.88;;;13.89;100.00
3434;BME280;1730;41.932;25.548;2024-02-21T10:37:59;99877.44;;;14.00;100.00
3434;BME280;1730;41.932;25.548;2024-02-21T10:40:26;99871.22;;;14.50;100.00
3434;BME280;1730;41.932;25.548;2024-02-21T10:42:57;99826.75;;;14.01;100.00
3434;BME280;1730;41.932;25.548;2024-02-21T10:45:31;99871.37;;;14.07;100.00
3434;BME280;1730;41.932;25.548;2024-02-21T10:48:22;99541.41;;;11.81;100.00
3434;BME280;1730;41.932;25.548;2024-02-21T10:50:56;99839.56;;;13.83;100.00
3434;BME280;1730;41.932;25.548;2024-02-21T10:56:06;99851.75;;;15.03;100.00
3434;BME280;1730;41.932;25.548;2024-02-21T10:58:36;99830.38;;;15.08;100.00
3434;BME280;1730;41.932;25.548;2024-02-21T11:01:03;99801.44;;;15.48;100.00
3434;BME280;1730;41.932;25.548;2024-02-21T11:03:30;99813.13;;;15.72;100.00
3434;BME280;1730;41.932;25.548;2024-02-21T11:05:57;99812.75;;;16.22;100.00
3434;BME280;1730;41.932;25.548;2024-02-21T11:08:24;99782.75;;;16.31;94.82
3434;BME280;1730;41.932;25.548;2024-02-21T11:10:57;99804.84;;;16.66;91.19
3434;BME280;1730;41.932;25.548;2024-02-21T11:13:32;99769.38;;;16.75;87.37
3434;BME280;1730;41.932;25.548;2024-02-21T11:16:11;99803.53;;;17.00;84.08
3434;BME280;1730;41.932;25.548;2024-02-21T11:18:37;99774.84;;;16.44;87.70
3434;BME280;1730;41.932;25.548;2024-02-21T11:21:04;99791.09;;;16.83;85.85
3434;BME280;1730;41.932;25.548;2024-02-21T11:23:31;99773.66;;;16.92;83.71
3434;BME280;1730;41.932;25.548;2024-02-21T11:26:09;99787.97;;;17.08;82.70
3434;BME280;1730;41.932;25.548;2024-02-21T11:28:36;99780.75;;;16.47;79.14
3434;BME280;1730;41.932;25.548;2024-02-21T11:31:12;99545.09;;;15.55;76.18
3434;BME280;1730;41.932;25.548;2024-02-21T11:33:41;99681.31;;;16.59;71.81
3434;BME280;1730;41.932;25.548;2024-02-21T11:36:10;99770.13;;;17.21;68.94
3434;BME280;1730;41.932;25.548;2024-02-21T11:38:36;99773.31;;;17.09;68.19
3434;BME280;1730;41.932;25.548;2024-02-21T11:41:02;99772.37;;;17.17;68.31
3434;BME280;1730;41.932;25.548;2024-02-21T11:43:28;99768.16;;;17.29;67.20
3434;BME280;1730;41.932;25.548;2024-02-21T11:46:00;99735.22;;;15.88;66.55
3434;BME280;1730;41.932;25.548;2024-02-21T11:48:26;99729.09;;;16.16;68.54
3434;BME280;1730;41.932;25.548;2024-02-21T11:50:56;99763.09;;;16.43;66.88
3434;BME280;1730;41.932;25.548;2024-02-21T11:53:22;99718.94;;;16.79;64.75
3434;BME280;1730;41.932;25.548;2024-02-21T11:55:48;99761.59;;;16.41;64.54
3434;BME280;1730;41.932;25.548;2024-02-21T11:58:15;99762.66;;;16.62;64.59
3434;BME280;1730;41.932;25.548;2024-02-21T12:00:40;99638.22;;;16.03;65.19
3434;BME280;1730;41.932;25.548;2024-02-21T12:03:08;99761.31;;;17.19;64.58
3434;BME280;1730;41.932;25.548;2024-02-21T12:05:34;99723.12;;;17.19;64.06
3434;BME280;1730;41.932;25.548;2024-02-21T12:08:00;99744.06;;;16.66;65.92
3434;BME280;1730;41.932;25.548;2024-02-21T12:10:26;99749.59;;;16.58;66.45
3434;BME280;1730;41.932;25.548;2024-02-21T12:12:52;99747.44;;;15.92;65.90
3434;BME280;1730;41.932;25.548;2024-02-21T12:15:20;99736.00;;;15.65;68.24
3434;BME280;1730;41.932;25.548;2024-02-21T12:17:45;99734.28;;;15.09;70.51
3434;BME280;1730;41.932;25.548;2024-02-21T12:20:11;99720.59;;;15.42;72.25
3434;BME280;1730;41.932;25.548;2024-02-21T12:22:43;99736.75;;;15.51;71.75
3434;BME280;1730;41.932;25.548;2024-02-21T12:25:19;99735.56;;;15.38;70.87
3434;BME280;1730;41.932;25.548;2024-02-21T12:27:50;99634.03;;;14.83;72.69
3434;BME280;1730;41.932;25.548;2024-02-21T12:30:19;99744.03;;;15.90;71.32
3434;BME280;1730;41.932;25.548;2024-02-21T12:32:50;99520.72;;;14.77;69.78
3434;BME280;1730;41.932;25.548;2024-02-21T12:35:21;99724.63;;;16.46;69.20
3434;BME280;1730;41.932;25.548;2024-02-21T12:37:48;99731.03;;;16.53;69.44
3434;BME280;1730;41.932;25.548;2024-02-21T12:40:13;99697.63;;;15.91;68.45
3434;BME280;1730;41.932;25.548;2024-02-21T12:42:39;99719.91;;;16.40;68.37
3434;BME280;1730;41.932;25.548;2024-02-21T12:45:05;99700.56;;;16.35;66.81
3434;BME280;1730;41.932;25.548;2024-02-21T12:47:31;99717.53;;;15.53;68.50
3434;BME280;1730;41.932;25.548;2024-02-21T12:49:59;99679.31;;;14.99;70.15
3434;BME280;1730;41.932;25.548;2024-02-21T12:52:25;99587.25;;;14.73;69.49
3434;BME280;1730;41.932;25.548;2024-02-21T12:54:51;99729.28;;;15.37;70.24
3434;BME280;1730;41.932;25.548;2024-02-21T12:57:17;99709.00;;;15.64;70.23
3434;BME280;1730;41.932;25.548;2024-02-21T12:59:42;99715.97;;;16.20;69.48
3434;BME280;1730;41.932;25.548;2024-02-21T13:02:08;99586.03;;;15.54;65.64